sensor_id;sensor_type;location;lat;lon;timestamp;pressure;altitude;pressure_sealevel;temperature;humidity
61761;BME280;47664;51.660;-0.100;2022-12-29T00:02:21;98747.98;;;7.70;66.88
61761;BME280;47664;51.660;-0.100;2022-12-29T00:04:54;98743.83;;;7.75;67.16
61761;BME280;47664;51.660;-0.100;2022-12-29T00:07:26;98738.95;;;7.75;67.04
61761;BME280;47664;51.660;-0.100;2022-12-29T00:09:58;98745.43;;;7.19;68.12
61761;BME280;47664;51.660;-0.100;2022-12-29T00:12:30;98738.79;;;7.21;69.32
61761;BME280;47664;51.660;-0.100;2022-12-29T00:15:03;98736.32;;;7.68;68.58
61761;BME280;47664;51.660;-0.100;2022-12-29T00:17:35;98735.00;;;7.27;69.37
61761;BME280;47664;51.660;-0.100;2022-12-29T00:20:08;98738.72;;;7.38;68.25
61761;BME280;47664;51.660;-0.100;2022-12-29T00:22:40;98734.14;;;7.33;68.28
61761;BME280;47664;51.660;-0.100;2022-12-29T00:25:13;98733.67;;;7.53;67.53
61761;BME280;47664;51.660;-0.100;2022-12-29T00:27:45;98727.77;;;7.35;67.56
61761;BME280;47664;51.660;-0.100;2022-12-29T00:30:19;98726.89;;;7.71;67.72
61761;BME280;47664;51.660;-0.100;2022-12-29T00:32:52;98724.36;;;7.64;66.56
61761;BME280;47664;51.660;-0.100;2022-12-29T00:35:25;98734.12;;;7.63;66.56
61761;BME280;47664;51.660;-0.100;2022-12-29T00:38:01;98728.67;;;6.96;67.52
61761;BME280;47664;51.660;-0.100;2022-12-29T00:40:33;98728.30;;;7.47;67.69
61761;BME280;47664;51.660;-0.100;2022-12-29T00:43:06;98723.96;;;7.48;66.97
61761;BME280;47664;51.660;-0.100;2022-12-29T00:45:39;98732.24;;;7.58;66.34
61761;BME280;47664;51.660;-0.100;2022-12-29T00:48:12;98726.73;;;7.52;66.01
61761;BME280;47664;51.660;-0.100;2022-12-29T00:50:44;98730.66;;;7.70;65.73
61761;BME280;47664;51.660;-0.100;2022-12-29T00:53:16;98733.02;;;7.77;65.41
61761;BME280;47664;51.660;-0.100;2022-12-29T00:55:49;98732.53;;;7.53;65.25
61761;BME280;47664;51.660;-0.100;2022-12-29T00:58:22;98724.58;;;7.67;65.82
61761;BME280;47664;51.660;-0.100;2022-12-29T01:01:00;98728.63;;;7.34;65.90
61761;BME280;47664;51.660;-0.100;2022-12-29T01:03:32;98730.46;;;7.50;65.66
61761;BME280;47664;51.660;-0.100;2022-12-29T01:06:06;98719.70;;;7.35;65.28
61761;BME280;47664;51.660;-0.100;2022-12-29T01:08:39;98725.13;;;7.28;66.22
61761;BME280;47664;51.660;-0.100;2022-12-29T01:11:12;98734.93;;;7.29;65.83
61761;BME280;47664;51.660;-0.100;2022-12-29T01:13:45;98730.87;;;7.41;66.07
61761;BME280;47664;51.660;-0.100;2022-12-29T01:16:17;98716.51;;;7.41;66.75
61761;BME280;47664;51.660;-0.100;2022-12-29T01:18:50;98725.18;;;6.97;66.64
61761;BME280;47664;51.660;-0.100;2022-12-29T01:21:21;98714.93;;;7.26;66.29
61761;BME280;47664;51.660;-0.100;2022-12-29T01:23:54;98708.47;;;7.48;66.24
61761;BME280;47664;51.660;-0.100;2022-12-29T01:26:26;98712.73;;;7.39;66.94
61761;BME280;47664;51.660;-0.100;2022-12-29T01:28:58;98716.07;;;7.09;66.95
61761;BME280;47664;51.660;-0.100;2022-12-29T01:31:30;98715.31;;;7.35;66.20
61761;BME280;47664;51.660;-0.100;2022-12-29T01:34:02;98699.16;;;7.02;66.32
61761;BME280;47664;51.660;-0.100;2022-12-29T01:36:34;98700.67;;;6.97;66.14
61761;BME280;47664;51.660;-0.100;2022-12-29T01:39:07;98709.10;;;7.05;66.23
61761;BME280;47664;51.660;-0.100;2022-12-29T01:41:39;98720.12;;;7.40;65.26
61761;BME280;47664;51.660;-0.100;2022-12-29T01:45:17;98725.44;;;7.54;66.24
61761;BME280;47664;51.660;-0.100;2022-12-29T01:47:52;98718.40;;;6.95;64.26
61761;BME280;47664;51.660;-0.100;2022-12-29T01:50:28;98729.60;;;7.09;63.16
61761;BME280;47664;51.660;-0.100;2022-12-29T01:53:03;98721.62;;;6.97;63.34
61761;BME280;47664;51.660;-0.100;2022-12-29T01:55:40;98736.01;;;7.21;63.39
61761;BME280;47664;51.660;-0.100;2022-12-29T01:58:14;98746.05;;;7.48;62.18
61761;BME280;47664;51.660;-0.100;2022-12-29T02:00:50;98739.65;;;7.31;61.01
61761;BME280;47664;51.660;-0.100;2022-12-29T02:03:19;98741.16;;;7.55;61.62
61761;BME280;47664;51.660;-0.100;2022-12-29T02:05:52;98732.63;;;7.10;62.07
61761;BME280;47664;51.660;-0.100;2022-12-29T02:08:29;98728.85;;;7.05;62.97
61761;BME280;47664;51.660;-0.100;2022-12-29T02:11:03;98730.02;;;6.70;63.49
61761;BME280;47664;51.660;-0.100;2022-12-29T02:13:35;98732.57;;;6.73;65.28
61761;BME280;47664;51.660;-0.100;2022-12-29T02:16:11;98733.95;;;6.88;64.51
61761;BME280;47664;51.660;-0.100;2022-12-29T02:18:47;98731.16;;;6.35;65.58
61761;BME280;47664;51.660;-0.100;2022-12-29T02:21:34;98729.13;;;6.87;65.43
61761;BME280;47664;51.660;-0.100;2022-12-29T02:24:27;98730.29;;;6.27;66.41
61761;BME280;47664;51.660;-0.100;2022-12-29T02:27:17;98727.19;;;6.40;65.87
61761;BME280;47664;51.660;-0.100;2022-12-29T02:30:04;98716.10;;;6.53;64.14
61761;BME280;47664;51.660;-0.100;2022-12-29T02:32:38;98727.51;;;6.52;64.89
61761;BME280;47664;51.660;-0.100;2022-12-29T02:35:14;98727.60;;;6.81;64.24
61761;BME280;47664;51.660;-0.100;2022-12-29T02:37:59;98717.39;;;6.47;63.46
61761;BME280;47664;51.660;-0.100;2022-12-29T02:40:36;98716.06;;;6.70;63.29
61761;BME280;47664;51.660;-0.100;2022-12-29T02:43:14;98726.34;;;7.17;62.44
61761;BME280;47664;51.660;-0.100;2022-12-29T02:45:53;98721.33;;;6.66;62.66
61761;BME280;47664;51.660;-0.100;2022-12-29T02:48:25;98721.16;;;6.99;62.57
61761;BME280;47664;51.660;-0.100;2022-12-29T02:51:06;98727.54;;;6.41;63.33
61761;BME280;47664;51.660;-0.100;2022-12-29T02:53:41;98739.35;;;6.81;63.13
61761;BME280;47664;51.660;-0.100;2022-12-29T02:56:13;98734.84;;;7.11;63.23
61761;BME280;47664;51.660;-0.100;2022-12-29T02:58:46;98736.74;;;6.69;63.00
61761;BME280;47664;51.660;-0.100;2022-12-29T03:01:23;98751.28;;;7.03;63.16
61761;BME280;47664;51.660;-0.100;2022-12-29T03:04:10;98744.05;;;6.98;62.91
61761;BME280;47664;51.660;-0.100;2022-12-29T03:06:47;98748.14;;;6.75;63.09
61761;BME280;47664;51.660;-0.100;2022-12-29T03:09:25;98750.07;;;7.11;63.33
61761;BME280;47664;51.660;-0.100;2022-12-29T03:11:58;98748.22;;;7.08;63.82
61761;BME280;47664;51.660;-0.100;2022-12-29T03:14:33;98752.81;;;7.05;63.27
61761;BME280;47664;51.660;-0.100;2022-12-29T03:17:08;98738.58;;;6.68;63.83
61761;BME280;47664;51.660;-0.100;2022-12-29T03:19:44;98757.73;;;6.60;64.86
61761;BME280;47664;51.660;-0.100;2022-12-29T03:22:18;98753.44;;;7.01;64.32
61761;BME280;47664;51.660;-0.100;2022-12-29T03:24:54;98746.24;;;6.48;65.10
61761;BME280;47664;51.660;-0.100;2022-12-29T03:27:32;98737.54;;;7.02;63.98
61761;BME280;47664;51.660;-0.100;2022-12-29T03:30:05;98739.76;;;7.01;63.80
61761;BME280;47664;51.660;-0.100;2022-12-29T03:32:42;98728.30;;;6.98;64.02
61761;BME280;47664;51.660;-0.100;2022-12-29T03:35:18;98730.67;;;7.24;63.26
61761;BME280;47664;51.660;-0.100;2022-12-29T03:37:52;98731.12;;;7.02;63.80
61761;BME280;47664;51.660;-0.100;2022-12-29T03:40:29;98731.21;;;7.43;63.71
61761;BME280;47664;51.660;-0.100;2022-12-29T03:43:03;98733.06;;;7.58;63.23
61761;BME280;47664;51.660;-0.100;2022-12-29T03:45:37;98728.09;;;7.42;63.29
61761;BME280;47664;51.660;-0.100;2022-12-29T03:48:09;98723.52;;;7.35;62.46
61761;BME280;47664;51.660;-0.100;2022-12-29T03:50:41;98723.99;;;7.95;61.76
61761;BME280;47664;51.660;-0.100;2022-12-29T03:53:14;98722.92;;;7.80;61.83
61761;BME280;47664;51.660;-0.100;2022-12-29T03:55:46;98719.25;;;7.48;62.26
61761;BME280;47664;51.660;-0.100;2022-12-29T03:58:18;98714.44;;;7.47;62.45
61761;BME280;47664;51.660;-0.100;2022-12-29T04:00:51;98713.67;;;7.65;62.59
61761;BME280;47664;51.660;-0.100;2022-12-29T04:03:22;98709.06;;;7.33;62.14
61761;BME280;47664;51.660;-0.100;2022-12-29T04:05:55;98707.28;;;7.21;62.79
61761;BME280;47664;51.660;-0.100;2022-12-29T04:08:27;98706.71;;;7.45;63.47
61761;BME280;47664;51.660;-0.100;2022-12-29T04:10:59;98715.01;;;7.47;63.97
61761;BME280;47664;51.660;-0.100;2022-12-29T04:13:32;98717.54;;;7.23;65.87
61761;BME280;47664;51.660;-0.100;2022-12-29T04:16:04;98716.99;;;6.87;66.04
61761;BME280;47664;51.660;-0.100;2022-12-29T04:18:36;98719.11;;;7.13;67.30
61761;BME280;47664;51.660;-0.100;2022-12-29T04:21:08;98722.94;;;7.04;66.42
61761;BME280;47664;51.660;-0.100;2022-12-29T04:23:42;98726.80;;;7.19;66.00
61761;BME280;47664;51.660;-0.100;2022-12-29T04:26:15;98717.52;;;7.42;65.25
61761;BME280;47664;51.660;-0.100;2022-12-29T04:28:47;98720.32;;;7.43;64.62
61761;BME280;47664;51.660;-0.100;2022-12-29T04:31:19;98722.66;;;7.38;65.20
61761;BME280;47664;51.660;-0.100;2022-12-29T04:33:50;98721.40;;;7.25;65.23
61761;BME280;47664;51.660;-0.100;2022-12-29T04:36:22;98726.89;;;7.49;65.50
61761;BME280;47664;51.660;-0.100;2022-12-29T04:38:55;98732.16;;;7.48;64.48
61761;BME280;47664;51.660;-0.100;2022-12-29T04:41:27;98725.54;;;7.46;64.23
61761;BME280;47664;51.660;-0.100;2022-12-29T04:43:59;98733.18;;;7.47;64.36
61761;BME280;47664;51.660;-0.100;2022-12-29T04:46:31;98734.37;;;7.42;64.46
61761;BME280;47664;51.660;-0.100;2022-12-29T04:49:03;98745.42;;;7.27;65.00
61761;BME280;47664;51.660;-0.100;2022-12-29T04:51:36;98740.79;;;7.85;64.82
61761;BME280;47664;51.660;-0.100;2022-12-29T04:54:08;98747.76;;;7.42;65.66
61761;BME280;47664;51.660;-0.100;2022-12-29T04:56:40;98745.62;;;7.40;65.08
61761;BME280;47664;51.660;-0.100;2022-12-29T04:59:12;98754.33;;;7.46;66.51
61761;BME280;47664;51.660;-0.100;2022-12-29T05:01:44;98759.00;;;7.43;66.94
61761;BME280;47664;51.660;-0.100;2022-12-29T05:04:16;98760.42;;;7.30;66.55
61761;BME280;47664;51.660;-0.100;2022-12-29T05:06:48;98763.28;;;7.32;66.69
61761;BME280;47664;51.660;-0.100;2022-12-29T05:09:20;98761.72;;;7.36;67.46
61761;BME280;47664;51.660;-0.100;2022-12-29T05:11:52;98775.72;;;7.49;67.37
61761;BME280;47664;51.660;-0.100;2022-12-29T05:14:24;98787.75;;;7.20;67.70
61761;BME280;47664;51.660;-0.100;2022-12-29T05:16:56;98811.24;;;7.04;69.15
61761;BME280;47664;51.660;-0.100;2022-12-29T05:19:28;98815.21;;;7.08;69.26
61761;BME280;47664;51.660;-0.100;2022-12-29T05:22:00;98822.55;;;7.08;68.93
61761;BME280;47664;51.660;-0.100;2022-12-29T05:24:33;98830.45;;;7.02;69.09
61761;BME280;47664;51.660;-0.100;2022-12-29T05:27:05;98835.99;;;7.26;68.43
61761;BME280;47664;51.660;-0.100;2022-12-29T05:29:36;98847.08;;;7.67;67.55
61761;BME280;47664;51.660;-0.100;2022-12-29T05:32:08;98845.13;;;7.06;67.41
61761;BME280;47664;51.660;-0.100;2022-12-29T05:34:40;98853.43;;;7.04;67.78
61761;BME280;47664;51.660;-0.100;2022-12-29T05:37:13;98860.23;;;7.07;67.74
61761;BME280;47664;51.660;-0.100;2022-12-29T05:39:45;98867.05;;;7.08;66.96
61761;BME280;47664;51.660;-0.100;2022-12-29T05:42:17;98880.17;;;6.85;67.39
61761;BME280;47664;51.660;-0.100;2022-12-29T05:44:50;98894.63;;;6.90;66.58
61761;BME280;47664;51.660;-0.100;2022-12-29T05:47:21;98891.97;;;6.88;66.75
61761;BME280;47664;51.660;-0.100;2022-12-29T05:49:54;98907.94;;;6.55;67.03
61761;BME280;47664;51.660;-0.100;2022-12-29T05:52:26;98914.98;;;6.69;66.72
61761;BME280;47664;51.660;-0.100;2022-12-29T05:54:58;98916.19;;;6.60;66.48
61761;BME280;47664;51.660;-0.100;2022-12-29T05:57:30;98917.65;;;6.90;66.49
61761;BME280;47664;51.660;-0.100;2022-12-29T06:00:02;98927.47;;;6.69;66.74
61761;BME280;47664;51.660;-0.100;2022-12-29T06:02:35;98937.10;;;7.07;66.25
61761;BME280;47664;51.660;-0.100;2022-12-29T06:05:08;98950.88;;;6.63;66.81
61761;BME280;47664;51.660;-0.100;2022-12-29T06:07:40;98949.23;;;7.03;65.92
61761;BME280;47664;51.660;-0.100;2022-12-29T06:10:13;98946.31;;;6.87;65.93
61761;BME280;47664;51.660;-0.100;2022-12-29T06:12:45;98944.19;;;7.05;66.12
61761;BME280;47664;51.660;-0.100;2022-12-29T06:15:18;98951.42;;;6.64;66.32
61761;BME280;47664;51.660;-0.100;2022-12-29T06:17:50;98958.64;;;6.34;66.41
61761;BME280;47664;51.660;-0.100;2022-12-29T06:20:22;98963.35;;;6.65;65.89
61761;BME280;47664;51.660;-0.100;2022-12-29T06:22:54;98967.82;;;6.45;65.90
61761;BME280;47664;51.660;-0.100;2022-12-29T06:25:26;98975.64;;;6.68;66.08
61761;BME280;47664;51.660;-0.100;2022-12-29T06:27:58;98977.79;;;6.49;65.84
61761;BME280;47664;51.660;-0.100;2022-12-29T06:30:31;98987.01;;;6.47;66.63
61761;BME280;47664;51.660;-0.100;2022-12-29T06:33:03;98999.46;;;6.43;66.82
61761;BME280;47664;51.660;-0.100;2022-12-29T06:35:35;99002.62;;;6.68;65.74
61761;BME280;47664;51.660;-0.100;2022-12-29T06:38:07;98999.46;;;6.51;65.19
61761;BME280;47664;51.660;-0.100;2022-12-29T06:40:39;99012.97;;;6.41;66.01
61761;BME280;47664;51.660;-0.100;2022-12-29T06:43:11;99012.74;;;6.18;66.27
61761;BME280;47664;51.660;-0.100;2022-12-29T06:45:43;99015.81;;;6.61;66.86
61761;BME280;47664;51.660;-0.100;2022-12-29T06:48:15;99024.82;;;5.98;66.57
61761;BME280;47664;51.660;-0.100;2022-12-29T06:50:47;99027.38;;;6.11;67.32
61761;BME280;47664;51.660;-0.100;2022-12-29T06:53:20;99042.62;;;6.00;67.46
61761;BME280;47664;51.660;-0.100;2022-12-29T06:55:51;99045.98;;;6.08;67.24
61761;BME280;47664;51.660;-0.100;2022-12-29T06:58:24;99055.62;;;6.34;66.97
61761;BME280;47664;51.660;-0.100;2022-12-29T07:00:56;99062.03;;;6.21;66.75
61761;BME280;47664;51.660;-0.100;2022-12-29T07:03:28;99067.90;;;6.17;66.25
61761;BME280;47664;51.660;-0.100;2022-12-29T07:06:00;99068.80;;;6.27;66.92
61761;BME280;47664;51.660;-0.100;2022-12-29T07:08:32;99077.83;;;6.59;67.04
61761;BME280;47664;51.660;-0.100;2022-12-29T07:11:04;99083.89;;;6.41;66.75
61761;BME280;47664;51.660;-0.100;2022-12-29T07:13:36;99086.69;;;6.22;66.53
61761;BME280;47664;51.660;-0.100;2022-12-29T07:16:10;99091.56;;;6.24;66.65
61761;BME280;47664;51.660;-0.100;2022-12-29T07:18:43;99097.25;;;6.29;66.74
61761;BME280;47664;51.660;-0.100;2022-12-29T07:21:14;99099.92;;;6.05;66.76
61761;BME280;47664;51.660;-0.100;2022-12-29T07:23:46;99106.30;;;6.15;66.33
61761;BME280;47664;51.660;-0.100;2022-12-29T07:26:20;99108.56;;;5.97;67.51
61761;BME280;47664;51.660;-0.100;2022-12-29T07:28:52;99116.51;;;5.73;67.10
61761;BME280;47664;51.660;-0.100;2022-12-29T07:31:26;99123.39;;;6.17;66.64
61761;BME280;47664;51.660;-0.100;2022-12-29T07:33:58;99120.45;;;5.96;66.44
61761;BME280;47664;51.660;-0.100;2022-12-29T07:36:30;99131.18;;;6.18;67.08
61761;BME280;47664;51.660;-0.100;2022-12-29T07:39:02;99137.97;;;6.09;66.32
61761;BME280;47664;51.660;-0.100;2022-12-29T07:41:34;99148.08;;;6.41;65.73
61761;BME280;47664;51.660;-0.100;2022-12-29T07:44:08;99159.24;;;6.48;65.88
61761;BME280;47664;51.660;-0.100;2022-12-29T07:46:41;99153.48;;;6.24;66.23
61761;BME280;47664;51.660;-0.100;2022-12-29T07:49:12;99164.80;;;6.55;66.01
61761;BME280;47664;51.660;-0.100;2022-12-29T07:51:45;99166.03;;;5.86;66.84
61761;BME280;47664;51.660;-0.100;2022-12-29T07:54:17;99167.76;;;5.93;66.34
61761;BME280;47664;51.660;-0.100;2022-12-29T07:56:49;99170.16;;;5.57;66.80
61761;BME280;47664;51.660;-0.100;2022-12-29T07:59:21;99175.46;;;6.13;65.95
61761;BME280;47664;51.660;-0.100;2022-12-29T08:01:53;99189.19;;;6.30;65.79
61761;BME280;47664;51.660;-0.100;2022-12-29T08:04:25;99187.82;;;6.08;66.37
61761;BME280;47664;51.660;-0.100;2022-12-29T08:06:57;99196.25;;;5.85;66.61
61761;BME280;47664;51.660;-0.100;2022-12-29T08:09:29;99198.80;;;6.46;66.54
61761;BME280;47664;51.660;-0.100;2022-12-29T08:12:01;99200.02;;;6.25;65.90
61761;BME280;47664;51.660;-0.100;2022-12-29T08:14:33;99203.90;;;6.14;65.99
61761;BME280;47664;51.660;-0.100;2022-12-29T08:17:05;99207.39;;;6.20;66.13
61761;BME280;47664;51.660;-0.100;2022-12-29T08:19:38;99211.79;;;5.70;67.05
61761;BME280;47664;51.660;-0.100;2022-12-29T08:22:10;99217.43;;;6.03;67.11
61761;BME280;47664;51.660;-0.100;2022-12-29T08:24:42;99223.24;;;6.30;66.59
61761;BME280;47664;51.660;-0.100;2022-12-29T08:27:14;99222.45;;;5.93;66.40
61761;BME280;47664;51.660;-0.100;2022-12-29T08:29:46;99233.67;;;5.93;66.05
61761;BME280;47664;51.660;-0.100;2022-12-29T08:32:18;99242.13;;;6.58;65.47
61761;BME280;47664;51.660;-0.100;2022-12-29T08:34:51;99250.16;;;5.82;65.71
61761;BME280;47664;51.660;-0.100;2022-12-29T08:37:22;99254.69;;;6.23;65.94
61761;BME280;47664;51.660;-0.100;2022-12-29T08:39:55;99263.90;;;6.09;65.76
61761;BME280;47664;51.660;-0.100;2022-12-29T08:42:27;99276.45;;;6.06;66.00
61761;BME280;47664;51.660;-0.100;2022-12-29T08:44:59;99283.28;;;6.42;65.33
61761;BME280;47664;51.660;-0.100;2022-12-29T08:47:32;99286.06;;;6.15;65.75
61761;BME280;47664;51.660;-0.100;2022-12-29T08:50:05;99285.56;;;6.83;64.80
61761;BME280;47664;51.660;-0.100;2022-12-29T08:52:37;99293.96;;;6.23;65.75
61761;BME280;47664;51.660;-0.100;2022-12-29T08:55:10;99302.35;;;6.46;65.40
61761;BME280;47664;51.660;-0.100;2022-12-29T08:57:42;99306.82;;;6.71;64.62
61761;BME280;47664;51.660;-0.100;2022-12-29T09:00:16;99311.05;;;6.28;66.20
61761;BME280;47664;51.660;-0.100;2022-12-29T09:02:49;99312.34;;;6.04;65.48
61761;BME280;47664;51.660;-0.100;2022-12-29T09:05:21;99316.19;;;6.69;65.15
61761;BME280;47664;51.660;-0.100;2022-12-29T09:07:53;99320.80;;;6.61;66.42
61761;BME280;47664;51.660;-0.100;2022-12-29T09:10:25;99325.97;;;6.46;66.35
61761;BME280;47664;51.660;-0.100;2022-12-29T09:12:57;99329.98;;;6.39;66.65
61761;BME280;47664;51.660;-0.100;2022-12-29T09:15:29;99332.56;;;6.57;66.57
61761;BME280;47664;51.660;-0.100;2022-12-29T09:18:01;99332.51;;;6.58;66.44
61761;BME280;47664;51.660;-0.100;2022-12-29T09:20:34;99328.94;;;6.85;66.03
61761;BME280;47664;51.660;-0.100;2022-12-29T09:23:06;99336.51;;;6.93;65.86
61761;BME280;47664;51.660;-0.100;2022-12-29T09:25:39;99339.01;;;7.25;65.20
61761;BME280;47664;51.660;-0.100;2022-12-29T09:28:11;99341.01;;;7.12;64.89
61761;BME280;47664;51.660;-0.100;2022-12-29T09:30:43;99339.94;;;6.93;64.58
61761;BME280;47664;51.660;-0.100;2022-12-29T09:33:16;99339.90;;;7.31;66.12
61761;BME280;47664;51.660;-0.100;2022-12-29T09:35:50;99344.69;;;6.23;66.65
61761;BME280;47664;51.660;-0.100;2022-12-29T09:38:23;99349.98;;;6.41;67.15
61761;BME280;47664;51.660;-0.100;2022-12-29T09:40:56;99356.07;;;6.64;66.17
61761;BME280;47664;51.660;-0.100;2022-12-29T09:43:43;99358.03;;;6.79;66.22
61761;BME280;47664;51.660;-0.100;2022-12-29T09:46:18;99363.46;;;6.30;67.05
61761;BME280;47664;51.660;-0.100;2022-12-29T09:48:53;99369.13;;;6.61;66.59
61761;BME280;47664;51.660;-0.100;2022-12-29T09:51:28;99365.70;;;6.89;65.95
61761;BME280;47664;51.660;-0.100;2022-12-29T09:54:02;99372.15;;;6.75;65.38
61761;BME280;47664;51.660;-0.100;2022-12-29T09:56:36;99375.52;;;6.51;66.20
61761;BME280;47664;51.660;-0.100;2022-12-29T09:59:08;99383.56;;;6.55;66.63
61761;BME280;47664;51.660;-0.100;2022-12-29T10:01:43;99381.16;;;6.79;65.36
61761;BME280;47664;51.660;-0.100;2022-12-29T10:04:16;99392.11;;;6.79;65.16
61761;BME280;47664;51.660;-0.100;2022-12-29T10:06:48;99393.32;;;6.69;64.93
61761;BME280;47664;51.660;-0.100;2022-12-29T10:09:23;99395.25;;;6.81;64.91
61761;BME280;47664;51.660;-0.100;2022-12-29T10:12:03;99395.16;;;6.71;66.58
61761;BME280;47664;51.660;-0.100;2022-12-29T10:14:51;99409.08;;;6.95;67.35
61761;BME280;47664;51.660;-0.100;2022-12-29T10:17:28;99416.89;;;6.71;67.59
61761;BME280;47664;51.660;-0.100;2022-12-29T10:20:17;99409.80;;;6.34;68.72
61761;BME280;47664;51.660;-0.100;2022-12-29T10:22:59;99414.91;;;5.89;68.60
61761;BME280;47664;51.660;-0.100;2022-12-29T10:25:38;99419.34;;;6.95;67.07
61761;BME280;47664;51.660;-0.100;2022-12-29T10:28:14;99423.65;;;6.33;67.55
61761;BME280;47664;51.660;-0.100;2022-12-29T10:30:49;99427.81;;;6.60;67.47
61761;BME280;47664;51.660;-0.100;2022-12-29T10:33:24;99425.01;;;6.52;66.96
61761;BME280;47664;51.660;-0.100;2022-12-29T10:35:58;99422.59;;;6.43;66.49
61761;BME280;47664;51.660;-0.100;2022-12-29T10:38:35;99429.16;;;6.80;66.65
61761;BME280;47664;51.660;-0.100;2022-12-29T10:41:11;99432.55;;;6.90;67.05
61761;BME280;47664;51.660;-0.100;2022-12-29T10:43:45;99439.17;;;6.14;66.99
61761;BME280;47664;51.660;-0.100;2022-12-29T10:46:17;99446.81;;;6.04;67.70
61761;BME280;47664;51.660;-0.100;2022-12-29T10:48:49;99443.45;;;6.39;66.13
61761;BME280;47664;51.660;-0.100;2022-12-29T10:51:22;99448.50;;;6.81;65.97
61761;BME280;47664;51.660;-0.100;2022-12-29T10:53:55;99448.12;;;6.45;65.14
61761;BME280;47664;51.660;-0.100;2022-12-29T10:56:30;99441.90;;;7.26;63.77
61761;BME280;47664;51.660;-0.100;2022-12-29T10:59:06;99445.37;;;7.22;62.84
61761;BME280;47664;51.660;-0.100;2022-12-29T11:01:46;99445.70;;;7.39;62.23
61761;BME280;47664;51.660;-0.100;2022-12-29T11:04:29;99450.58;;;7.74;61.56
61761;BME280;47664;51.660;-0.100;2022-12-29T11:07:07;99458.38;;;6.89;61.53
61761;BME280;47664;51.660;-0.100;2022-12-29T11:09:41;99461.51;;;7.23;62.76
61761;BME280;47664;51.660;-0.100;2022-12-29T11:12:27;99468.57;;;6.96;62.73
61761;BME280;47664;51.660;-0.100;2022-12-29T11:15:12;99469.82;;;6.76;62.99
61761;BME280;47664;51.660;-0.100;2022-12-29T11:17:48;99475.49;;;6.53;63.51
61761;BME280;47664;51.660;-0.100;2022-12-29T11:20:28;99479.92;;;6.49;63.38
61761;BME280;47664;51.660;-0.100;2022-12-29T11:23:01;99485.08;;;6.71;63.08
61761;BME280;47664;51.660;-0.100;2022-12-29T11:25:34;99486.32;;;6.73;62.91
61761;BME280;47664;51.660;-0.100;2022-12-29T11:28:14;99489.29;;;6.74;63.88
61761;BME280;47664;51.660;-0.100;2022-12-29T11:30:49;99486.43;;;6.24;63.88
61761;BME280;47664;51.660;-0.100;2022-12-29T11:33:33;99481.56;;;6.78;62.87
61761;BME280;47664;51.660;-0.100;2022-12-29T11:36:10;99490.95;;;6.65;62.60
61761;BME280;47664;51.660;-0.100;2022-12-29T11:38:46;99490.84;;;7.06;61.11
61761;BME280;47664;51.660;-0.100;2022-12-29T11:41:21;99499.00;;;6.68;62.69
61761;BME280;47664;51.660;-0.100;2022-12-29T11:43:54;99496.00;;;6.49;62.21
61761;BME280;47664;51.660;-0.100;2022-12-29T11:46:29;99493.51;;;6.97;61.52
61761;BME280;47664;51.660;-0.100;2022-12-29T11:49:04;99502.76;;;6.87;61.72
61761;BME280;47664;51.660;-0.100;2022-12-29T11:51:39;99501.72;;;6.80;60.87
61761;BME280;47664;51.660;-0.100;2022-12-29T11:54:15;99503.51;;;6.32;62.34
61761;BME280;47664;51.660;-0.100;2022-12-29T11:56:50;99513.66;;;6.63;62.40
61761;BME280;47664;51.660;-0.100;2022-12-29T11:59:38;99515.19;;;6.57;62.12
61761;BME280;47664;51.660;-0.100;2022-12-29T12:02:26;99513.87;;;6.46;62.07
61761;BME280;47664;51.660;-0.100;2022-12-29T12:05:01;99517.75;;;6.54;62.06
61761;BME280;47664;51.660;-0.100;2022-12-29T12:07:39;99517.42;;;6.71;60.57
61761;BME280;47664;51.660;-0.100;2022-12-29T12:10:16;99517.98;;;6.91;60.95
61761;BME280;47664;51.660;-0.100;2022-12-29T12:12:55;99521.92;;;6.52;60.37
61761;BME280;47664;51.660;-0.100;2022-12-29T12:15:27;99530.12;;;7.01;60.48
61761;BME280;47664;51.660;-0.100;2022-12-29T12:18:01;99531.03;;;6.93;60.36
61761;BME280;47664;51.660;-0.100;2022-12-29T12:20:38;99528.64;;;6.76;59.96
61761;BME280;47664;51.660;-0.100;2022-12-29T12:23:16;99536.40;;;6.57;60.90
61761;BME280;47664;51.660;-0.100;2022-12-29T12:25:53;99536.19;;;6.63;61.07
61761;BME280;47664;51.660;-0.100;2022-12-29T12:28:30;99531.91;;;6.60;60.03
61761;BME280;47664;51.660;-0.100;2022-12-29T12:31:12;99535.07;;;6.63;60.39
61761;BME280;47664;51.660;-0.100;2022-12-29T12:33:45;99539.68;;;6.42;60.58
61761;BME280;47664;51.660;-0.100;2022-12-29T12:36:30;99537.29;;;6.79;60.45
61761;BME280;47664;51.660;-0.100;2022-12-29T12:39:10;99525.23;;;6.66;59.94
61761;BME280;47664;51.660;-0.100;2022-12-29T12:41:48;99526.20;;;6.79;60.78
61761;BME280;47664;51.660;-0.100;2022-12-29T12:44:26;99527.39;;;6.36;60.56
61761;BME280;47664;51.660;-0.100;2022-12-29T12:47:08;99526.30;;;6.73;59.60
61761;BME280;47664;51.660;-0.100;2022-12-29T12:49:59;99529.14;;;6.38;59.39
61761;BME280;47664;51.660;-0.100;2022-12-29T12:52:36;99534.38;;;6.79;59.29
61761;BME280;47664;51.660;-0.100;2022-12-29T12:55:26;99535.33;;;6.90;58.26
61761;BME280;47664;51.660;-0.100;2022-12-29T12:58:01;99538.27;;;6.73;58.30
61761;BME280;47664;51.660;-0.100;2022-12-29T13:00:40;99528.85;;;7.08;58.01
61761;BME280;47664;51.660;-0.100;2022-12-29T13:03:13;99539.70;;;6.62;58.86
61761;BME280;47664;51.660;-0.100;2022-12-29T13:05:56;99536.58;;;6.84;58.65
61761;BME280;47664;51.660;-0.100;2022-12-29T13:08:46;99533.15;;;6.69;58.26
61761;BME280;47664;51.660;-0.100;2022-12-29T13:11:27;99538.93;;;7.20;57.74
61761;BME280;47664;51.660;-0.100;2022-12-29T13:14:09;99539.37;;;7.04;57.94
61761;BME280;47664;51.660;-0.100;2022-12-29T13:16:44;99539.11;;;6.83;57.59
61761;BME280;47664;51.660;-0.100;2022-12-29T13:19:20;99540.65;;;6.57;57.71
61761;BME280;47664;51.660;-0.100;2022-12-29T13:21:58;99538.81;;;6.32;58.40
61761;BME280;47664;51.660;-0.100;2022-12-29T13:24:34;99537.70;;;6.44;58.93
61761;BME280;47664;51.660;-0.100;2022-12-29T13:27:11;99540.14;;;6.76;57.93
61761;BME280;47664;51.660;-0.100;2022-12-29T13:29:50;99548.01;;;6.75;57.72
61761;BME280;47664;51.660;-0.100;2022-12-29T13:32:34;99531.82;;;6.82;58.07
61761;BME280;47664;51.660;-0.100;2022-12-29T13:35:14;99534.09;;;6.64;58.17
61761;BME280;47664;51.660;-0.100;2022-12-29T13:37:53;99533.81;;;6.83;57.92
61761;BME280;47664;51.660;-0.100;2022-12-29T13:40:31;99534.97;;;6.98;56.87